Time;durP1;ratioP1;P1;durP2;ratioP2;P2;SDS_P1;SDS_P2;PMS_P1;PMS_P2;Temp;Humidity;BMP_temperature;BMP_pressure;BME280_temperature;BME280_humidity;BME280_pressure;Samples;Min_cycle;Max_cycle;Signal;HPM_P1;HPM_P2
2022/09/01 00:00:54;;;;;;;8.52;2.60;;;14.60;99.90;;;;;;4946615;29;20368;-65
2022/09/01 00:03:22;;;;;;;8.20;2.67;;;14.60;99.90;;;;;;4942280;28;20031;-65
2022/09/01 00:05:49;;;;;;;7.63;2.40;;;14.50;99.90;;;;;;4935797;29;20035;-65
2022/09/01 00:08:15;;;;;;;6.43;2.30;;;14.50;99.90;;;;;;4945651;29;20020;-63
2022/09/01 00:10:41;;;;;;;6.00;2.30;;;14.40;99.90;;;;;;4939685;29;20082;-64
2022/09/01 00:13:07;;;;;;;6.32;2.35;;;14.40;99.90;;;;;;4950730;29;20016;-64
2022/09/01 00:15:35;;;;;;;6.32;2.22;;;14.40;99.90;;;;;;4947130;29;20031;-64
2022/09/01 00:18:01;;;;;;;8.07;2.40;;;14.40;99.90;;;;;;4943168;29;20032;-64
2022/09/01 00:20:28;;;;;;;6.70;2.20;;;14.50;99.90;;;;;;4946637;29;20035;-64
2022/09/01 00:22:54;;;;;;;7.60;2.20;;;14.40;99.90;;;;;;4947067;29;20644;-64
2022/09/01 00:25:20;;;;;;;6.10;2.22;;;14.40;99.90;;;;;;4941764;29;20035;-64
2022/09/01 00:27:48;;;;;;;8.15;2.10;;;14.40;99.90;;;;;;4925668;29;20031;-63
2022/09/01 00:30:14;;;;;;;6.20;2.20;;;14.30;99.90;;;;;;4950554;28;20024;-65
2022/09/01 00:32:45;;;;;;;5.70;2.00;;;14.30;99.90;;;;;;4947517;29;20059;-64
2022/09/01 00:35:14;;;;;;;6.72;2.30;;;14.20;99.90;;;;;;4944747;29;20332;-63
2022/09/01 00:37:40;;;;;;;6.30;2.15;;;14.20;99.90;;;;;;4940291;29;20058;-63
2022/09/01 00:40:08;;;;;;;6.57;2.22;;;14.00;99.90;;;;;;4950266;28;20079;-63
2022/09/01 00:42:33;;;;;;;7.22;2.40;;;13.90;99.90;;;;;;4945678;29;20023;-64
2022/09/01 00:44:59;;;;;;;8.10;2.42;;;13.70;99.90;;;;;;4943107;29;20055;-64
2022/09/01 00:47:25;;;;;;;5.85;2.35;;;13.60;99.90;;;;;;4946746;28;20102;-63
2022/09/01 00:49:52;;;;;;;8.27;2.38;;;13.50;99.90;;;;;;4940860;29;20023;-64
2022/09/01 00:52:35;;;;;;;7.10;2.70;;;13.50;99.90;;;;;;4945397;29;20027;-63
2022/09/01 00:55:21;;;;;;;5.93;2.20;;;13.40;99.90;;;;;;4945197;29;20023;-63
2022/09/01 00:57:47;;;;;;;7.47;2.60;;;13.30;99.90;;;;;;4925651;29;20561;-64
2022/09/01 01:00:19;;;;;;;6.50;2.30;;;13.30;99.90;;;;;;4942058;29;20225;-64
2022/09/01 01:02:46;;;;;;;6.30;2.30;;;13.20;99.90;;;;;;4938738;29;20032;-63
2022/09/01 01:05:13;;;;;;;8.02;2.50;;;13.30;99.90;;;;;;4941173;29;20496;-63
2022/09/01 01:07:42;;;;;;;7.45;2.53;;;13.30;99.90;;;;;;4943440;29;20063;-63
2022/09/01 01:10:12;;;;;;;6.10;2.60;;;13.20;99.90;;;;;;4942897;29;20026;-64
2022/09/01 01:12:42;;;;;;;8.65;2.60;;;13.10;99.90;;;;;;4945020;29;20072;-63
2022/09/01 01:15:12;;;;;;;6.90;2.60;;;13.00;99.90;;;;;;4927508;29;20033;-64
2022/09/01 01:17:39;;;;;;;7.75;2.78;;;12.90;99.90;;;;;;4922580;29;20399;-63
2022/09/01 01:23:29;;;;;;;6.50;2.50;;;12.80;99.90;;;;;;4940506;29;20070;-63
2022/09/01 01:25:59;;;;;;;6.32;2.53;;;12.70;99.90;;;;;;4926372;29;20032;-63
2022/09/01 01:28:35;;;;;;;6.85;2.78;;;12.60;99.90;;;;;;4945278;29;20459;-63
2022/09/01 01:31:11;;;;;;;7.50;2.60;;;12.50;99.90;;;;;;4940691;29;20035;-64
2022/09/01 01:33:43;;;;;;;7.72;2.70;;;12.30;99.90;;;;;;4924444;29;20143;-64
2022/09/01 01:36:31;;;;;;;9.68;2.70;;;12.30;99.90;;;;;;4939872;29;20042;-64
2022/09/01 01:39:01;;;;;;;8.20;2.70;;;12.40;99.90;;;;;;4950637;28;20113;-63
2022/09/01 01:41:28;;;;;;;6.53;2.78;;;12.60;99.90;;;;;;4938950;29;20150;-63
2022/09/01 01:43:57;;;;;;;6.55;2.60;;;12.50;99.90;;;;;;4938667;29;20020;-64
2022/09/01 01:46:24;;;;;;;7.88;2.85;;;12.40;99.90;;;;;;4945813;29;20033;-64
2022/09/01 01:48:51;;;;;;;8.93;3.00;;;12.40;99.90;;;;;;4942209;28;20027;-64
2022/09/01 01:51:20;;;;;;;7.47;3.05;;;12.30;99.90;;;;;;4944601;29;20479;-64
2022/09/01 01:53:46;;;;;;;7.63;3.22;;;12.30;99.90;;;;;;4940659;29;20075;-63
2022/09/01 01:56:12;;;;;;;8.52;2.85;;;12.30;99.90;;;;;;4943879;29;20027;-63
2022/09/01 01:58:39;;;;;;;6.72;2.90;;;12.20;99.90;;;;;;4946024;29;20049;-63
2022/09/01 02:01:10;;;;;;;7.18;3.08;;;12.20;99.90;;;;;;4945802;28;20034;-63
2022/09/01 02:03:37;;;;;;;8.48;2.80;;;12.10;99.90;;;;;;4937158;29;20035;-63
2022/09/01 02:06:08;;;;;;;8.50;3.30;;;11.90;99.90;;;;;;4932564;29;20496;-64
2022/09/01 02:08:36;;;;;;;9.70;3.15;;;11.80;99.90;;;;;;4923060;29;20019;-63
2022/09/01 02:11:03;;;;;;;9.32;3.15;;;11.80;99.90;;;;;;4939766;29;20016;-63
2022/09/01 02:13:29;;;;;;;9.13;3.20;;;11.80;99.90;;;;;;4940867;29;20041;-63
2022/09/01 02:15:58;;;;;;;7.40;3.17;;;11.70;99.90;;;;;;4940629;29;20499;-64
2022/09/01 02:18:27;;;;;;;7.43;3.28;;;11.50;99.90;;;;;;4936423;29;20380;-64
2022/09/01 02:20:54;;;;;;;8.00;3.42;;;11.50;99.90;;;;;;4941193;29;20475;-64
2022/09/01 02:23:24;;;;;;;7.53;3.28;;;11.40;99.90;;;;;;4939496;29;20067;-64
2022/09/01 02:25:57;;;;;;;7.18;3.33;;;11.40;99.90;;;;;;4940375;29;20489;-64
2022/09/01 02:28:23;;;;;;;7.22;3.35;;;11.30;99.90;;;;;;4925823;29;20024;-64
2022/09/01 02:30:53;;;;;;;7.63;3.30;;;11.20;99.90;;;;;;4938911;29;20075;-64
2022/09/01 02:33:20;;;;;;;;;;;11.10;99.90;;;;;;4937303;29;20051;-64
2022/09/01 02:35:48;;;;;;;9.00;3.58;;;11.10;99.90;;;;;;4942826;29;19915;-63
2022/09/01 02:38:16;;;;;;;7.75;3.58;;;11.10;99.90;;;;;;4940572;28;20020;-63
2022/09/01 02:40:45;;;;;;;7.47;3.60;;;11.20;99.90;;;;;;4933489;29;20046;-63
2022/09/01 02:43:18;;;;;;;9.48;3.35;;;11.30;99.90;;;;;;4940601;29;20028;-63
2022/09/01 02:45:45;;;;;;;8.70;3.58;;;11.30;99.90;;;;;;4938429;29;20040;-63
2022/09/01 02:48:12;;;;;;;7.68;3.30;;;11.30;99.90;;;;;;4936932;28;20074;-63
2022/09/01 02:50:40;;;;;;;8.35;3.22;;;11.40;99.90;;;;;;4939898;29;20042;-63
2022/09/01 02:53:08;;;;;;;7.53;3.35;;;11.40;99.90;;;;;;4939596;29;20051;-63
2022/09/01 02:55:38;;;;;;;6.93;3.50;;;11.30;99.90;;;;;;4923382;29;20023;-63
2022/09/01 02:58:09;;;;;;;7.70;3.45;;;11.40;99.90;;;;;;4941071;29;20537;-64
2022/09/01 03:00:36;;;;;;;;;;;11.30;99.90;;;;;;4947284;29;20158;-64
2022/09/01 03:03:02;;;;;;;8.73;3.83;;;11.20;99.90;;;;;;4941566;29;19970;-64
2022/09/01 03:05:30;;;;;;;7.45;3.40;;;11.20;99.90;;;;;;4937792;29;20126;-64
2022/09/01 03:07:59;;;;;;;8.52;3.70;;;11.10;99.90;;;;;;4930381;29;20074;-64
2022/09/01 03:10:35;;;;;;;8.80;3.42;;;11.10;99.90;;;;;;4941813;29;20016;-64
2022/09/01 03:13:05;;;;;;;12.38;3.70;;;11.20;99.90;;;;;;4942852;29;20027;-63
2022/09/01 03:15:32;;;;;;;7.70;3.53;;;11.30;99.90;;;;;;4937923;29;20098;-63
2022/09/01 03:17:59;;;;;;;8.18;3.70;;;11.40;99.90;;;;;;4927528;29;20428;-64
2022/09/01 03:20:27;;;;;;;9.35;3.60;;;11.70;99.90;;;;;;4937902;29;20534;-64
2022/09/01 03:22:55;;;;;;;9.45;3.45;;;11.90;99.90;;;;;;4931404;29;20023;-64
2022/09/01 03:25:23;;;;;;;8.02;3.00;;;12.00;99.90;;;;;;4941082;29;20079;-64
2022/09/01 03:27:51;;;;;;;7.25;3.35;;;12.00;99.90;;;;;;4940556;29;20062;-64
2022/09/01 03:30:17;;;;;;;7.00;3.30;;;12.10;99.90;;;;;;4942187;28;20012;-64
2022/09/01 03:32:43;;;;;;;8.82;3.63;;;12.20;99.90;;;;;;4936040;29;20126;-64
2022/09/01 03:35:10;;;;;;;7.65;3.42;;;12.30;99.90;;;;;;4926557;29;20035;-64
2022/09/01 03:37:38;;;;;;;8.48;3.00;;;12.30;99.90;;;;;;4938453;28;20090;-64
2022/09/01 03:40:07;;;;;;;7.18;3.00;;;12.30;99.90;;;;;;4945067;28;20111;-64
2022/09/01 03:42:34;;;;;;;9.00;3.40;;;12.30;99.90;;;;;;4943331;29;20019;-63
2022/09/01 03:45:07;;;;;;;7.18;3.25;;;12.40;99.90;;;;;;4926196;29;20031;-64
2022/09/01 03:47:34;;;;;;;8.07;3.35;;;12.30;99.90;;;;;;4950291;28;20020;-64
2022/09/01 03:50:00;;;;;;;14.55;3.63;;;12.30;99.90;;;;;;4930409;29;20034;-64
2022/09/01 03:52:26;;;;;;;9.48;3.30;;;12.30;99.90;;;;;;4948917;29;20031;-63
2022/09/01 03:54:52;;;;;;;8.27;3.58;;;12.40;99.90;;;;;;4942945;29;20082;-64
2022/09/01 03:57:18;;;;;;;9.73;3.30;;;12.40;99.90;;;;;;4943838;29;20091;-64
2022/09/01 03:59:44;;;;;;;8.07;3.45;;;12.40;99.90;;;;;;4941434;29;20043;-64
2022/09/01 04:02:10;;;;;;;6.97;3.30;;;12.30;99.90;;;;;;4939144;29;20039;-64
2022/09/01 04:04:36;;;;;;;7.32;3.40;;;12.30;99.90;;;;;;4934062;29;20039;-64
2022/09/01 04:07:01;;;;;;;6.95;3.28;;;12.10;99.90;;;;;;4936958;29;20035;-64
2022/09/01 04:09:27;;;;;;;10.07;3.35;;;12.00;99.90;;;;;;4945838;29;20031;-64
2022/09/01 04:11:53;;;;;;;8.57;3.33;;;11.90;99.90;;;;;;4939724;29;20063;-64
2022/09/01 04:14:19;;;;;;;9.50;3.15;;;11.80;99.90;;;;;;4942498;29;20031;-64
2022/09/01 04:19:35;;;;;;;7.55;3.30;;;11.60;99.90;;;;;;4945269;29;20035;-64
2022/09/01 04:22:02;;;;;;;6.85;3.30;;;11.50;99.90;;;;;;4931022;29;20024;-64
2022/09/01 04:24:30;;;;;;;7.50;3.10;;;11.30;99.90;;;;;;4940023;29;20024;-64
2022/09/01 04:26:58;;;;;;;7.28;3.28;;;11.30;99.90;;;;;;4925934;29;20020;-64
2022/09/01 04:29:28;;;;;;;7.45;3.40;;;11.20;99.90;;;;;;4940080;29;20038;-64
2022/09/01 04:32:04;;;;;;;8.43;3.58;;;11.20;99.90;;;;;;4944662;28;20035;-64
2022/09/01 04:34:35;;;;;;;7.10;3.50;;;11.10;99.90;;;;;;4948630;29;20415;-64
2022/09/01 04:37:22;;;;;;;8.70;3.45;;;11.10;99.90;;;;;;4928680;29;20051;-63
2022/09/01 04:39:52;;;;;;;9.43;4.32;;;11.10;99.90;;;;;;4946885;28;20046;-64
2022/09/01 04:42:22;;;;;;;;;;;11.10;99.90;;;;;;4948720;29;20111;-64
2022/09/01 04:44:56;;;;;;;8.75;3.38;;;11.00;99.90;;;;;;4948192;29;19961;-64
2022/09/01 04:47:28;;;;;;;8.93;3.80;;;11.10;99.90;;;;;;4926652;28;20055;-64
2022/09/01 04:49:57;;;;;;;10.55;3.65;;;11.00;99.90;;;;;;4946191;28;20078;-64
2022/09/01 04:52:24;;;;;;;8.70;3.60;;;11.00;99.90;;;;;;4926646;29;20027;-64
2022/09/01 04:54:49;;;;;;;8.52;4.13;;;10.90;99.90;;;;;;4932082;29;20035;-64
2022/09/01 04:57:15;;;;;;;10.57;4.28;;;10.80;99.90;;;;;;4947146;29;20038;-64
2022/09/01 04:59:42;;;;;;;7.95;3.90;;;10.70;99.90;;;;;;4945526;29;20090;-64
2022/09/01 05:02:08;;;;;;;8.65;3.50;;;10.60;99.90;;;;;;4929059;29;20043;-64
2022/09/01 05:04:35;;;;;;;11.43;4.00;;;10.60;99.90;;;;;;4943774;29;20057;-64
2022/09/01 05:07:03;;;;;;;9.38;3.80;;;10.60;99.90;;;;;;4925614;29;20043;-63
2022/09/01 05:09:31;;;;;;;10.88;4.03;;;10.70;99.90;;;;;;4928888;29;20042;-64
2022/09/01 05:12:09;;;;;;;10.85;3.72;;;10.70;99.90;;;;;;4935515;29;20032;-64
2022/09/01 05:14:47;;;;;;;7.68;3.50;;;10.70;99.90;;;;;;4947970;29;20035;-64
2022/09/01 05:17:13;;;;;;;8.88;4.07;;;10.70;99.90;;;;;;4945836;29;20425;-64
2022/09/01 05:19:41;;;;;;;9.63;3.70;;;10.80;99.90;;;;;;4946292;29;20463;-64
2022/09/01 05:22:09;;;;;;;12.52;3.90;;;10.80;99.90;;;;;;4946198;28;20020;-63
2022/09/01 05:24:35;;;;;;;9.05;3.60;;;10.80;99.90;;;;;;4947195;29;20035;-63
2022/09/01 05:27:06;;;;;;;8.18;3.78;;;10.70;99.90;;;;;;4942130;29;20019;-64
2022/09/01 05:29:33;;;;;;;9.55;4.10;;;10.70;99.90;;;;;;4937449;29;20115;-63
2022/09/01 05:31:59;;;;;;;9.48;3.72;;;10.80;99.90;;;;;;4943120;28;20054;-64
2022/09/01 05:34:25;;;;;;;7.50;3.60;;;10.80;99.90;;;;;;4948387;29;20027;-63
2022/09/01 05:36:53;;;;;;;8.43;3.95;;;10.90;99.90;;;;;;4947371;29;20399;-63
2022/09/01 05:39:19;;;;;;;8.35;3.60;;;10.90;99.90;;;;;;4935898;29;20027;-63
2022/09/01 05:41:46;;;;;;;10.75;4.22;;;11.10;99.90;;;;;;4928147;28;20031;-63
2022/09/01 05:44:14;;;;;;;9.63;4.32;;;11.20;99.90;;;;;;4948088;28;20408;-63
2022/09/01 05:46:41;;;;;;;8.98;4.18;;;11.40;99.90;;;;;;4949656;28;20028;-63
2022/09/01 05:49:12;;;;;;;12.40;4.18;;;11.50;99.90;;;;;;4947841;28;20170;-63
2022/09/01 05:51:40;;;;;;;8.88;3.78;;;11.60;99.90;;;;;;4937336;29;20039;-63
2022/09/01 05:54:08;;;;;;;12.30;3.70;;;11.80;99.90;;;;;;4944064;29;20023;-63
2022/09/01 05:56:40;;;;;;;11.57;4.18;;;11.90;99.90;;;;;;4925726;29;20215;-63
2022/09/01 05:59:06;;;;;;;8.05;3.75;;;11.90;99.90;;;;;;4942089;28;20411;-63
2022/09/01 06:01:32;;;;;;;13.90;4.78;;;12.10;99.90;;;;;;4941185;28;20209;-63
2022/09/01 06:04:02;;;;;;;12.07;4.28;;;12.10;99.90;;;;;;4941087;28;20031;-63
2022/09/01 06:06:36;;;;;;;16.90;5.32;;;12.20;99.90;;;;;;4941131;28;20035;-63
2022/09/01 06:09:04;;;;;;;11.27;4.38;;;12.40;99.90;;;;;;4942610;29;20035;-63
2022/09/01 06:11:31;;;;;;;18.65;4.00;;;12.50;99.90;;;;;;4945925;29;20106;-63
2022/09/01 06:14:01;;;;;;;9.65;3.60;;;12.60;99.90;;;;;;4920817;29;20114;-63
2022/09/01 06:16:29;;;;;;;8.05;3.85;;;12.90;99.90;;;;;;4926547;29;20082;-63
2022/09/01 06:18:58;;;;;;;9.95;3.67;;;13.00;99.90;;;;;;4940280;29;20028;-63
2022/09/01 06:21:35;;;;;;;7.68;3.33;;;13.10;99.90;;;;;;5050884;28;20994;-64
2022/09/01 06:24:03;;;;;;;11.85;3.70;;;13.20;99.90;;;;;;5049006;28;20108;-64
2022/09/01 06:26:31;;;;;;;12.02;3.40;;;13.30;99.90;;;;;;5047822;28;20022;-64
2022/09/01 06:29:00;;;;;;;10.00;4.05;;;13.40;99.90;;;;;;5054400;28;20116;-65
2022/09/01 06:31:32;;;;;;;7.45;3.35;;;13.50;99.90;;;;;;5052006;28;20037;-64
2022/09/01 06:34:00;;;;;;;9.65;3.40;;;13.60;99.90;;;;;;5052688;28;20021;-64
2022/09/01 06:36:26;;;;;;;8.93;3.58;;;13.80;99.90;;;;;;5049480;28;20029;-65
2022/09/01 06:38:54;;;;;;;11.25;4.00;;;13.90;99.90;;;;;;5055207;28;20507;-65
2022/09/01 06:41:20;;;;;;;17.17;4.10;;;14.00;99.90;;;;;;5052664;28;20036;-66
2022/09/01 06:43:48;;;;;;;9.80;3.78;;;14.10;99.90;;;;;;5066877;28;20551;-65
2022/09/01 06:46:18;;;;;;;9.00;3.60;;;14.30;99.90;;;;;;5054432;28;20120;-66
2022/09/01 06:48:45;;;;;;;8.48;3.50;;;14.30;99.90;;;;;;5053598;28;20052;-66
2022/09/01 06:51:16;;;;;;;12.07;3.97;;;14.40;99.90;;;;;;5053982;28;20024;-66
2022/09/01 06:53:43;;;;;;;9.98;3.72;;;14.50;99.90;;;;;;5055839;28;20037;-65
2022/09/01 06:56:12;;;;;;;9.07;3.50;;;14.70;99.90;;;;;;5057605;28;20025;-65
2022/09/01 06:58:40;;;;;;;9.32;3.22;;;14.70;99.90;;;;;;5055010;28;20049;-65
2022/09/01 07:01:14;;;;;;;7.55;3.55;;;14.90;99.90;;;;;;5057052;28;20390;-65
2022/09/01 07:03:42;;;;;;;7.82;3.15;;;15.00;99.90;;;;;;5051486;28;20376;-65
2022/09/01 07:06:09;;;;;;;7.85;3.20;;;15.20;99.90;;;;;;5048656;28;20025;-65
2022/09/01 07:08:38;;;;;;;8.80;2.83;;;15.30;99.90;;;;;;5055160;28;20458;-65
2022/09/01 07:11:06;;;;;;;8.30;3.00;;;15.40;99.90;;;;;;5062140;28;20036;-66
2022/09/01 07:13:34;;;;;;;12.05;2.75;;;15.70;99.90;;;;;;5051788;28;20021;-65
2022/09/01 07:16:03;;;;;;;7.82;3.10;;;15.80;99.90;;;;;;5057341;28;20021;-65
2022/09/01 07:18:30;;;;;;;6.72;2.85;;;15.90;99.90;;;;;;5055102;28;20139;-65
2022/09/01 07:20:56;;;;;;;6.20;2.25;;;16.00;99.90;;;;;;5053384;28;20048;-65
2022/09/01 07:23:24;;;;;;;7.32;2.40;;;16.10;99.90;;;;;;5045474;28;20102;-65
2022/09/01 07:25:54;;;;;;;9.00;2.70;;;16.30;99.90;;;;;;5049158;28;20037;-65
2022/09/01 07:28:22;;;;;;;8.43;2.80;;;16.50;99.90;;;;;;5042437;28;20036;-65
2022/09/01 07:30:51;;;;;;;7.90;2.75;;;16.70;99.90;;;;;;5040572;28;20135;-65
2022/09/01 07:33:21;;;;;;;8.55;2.22;;;16.80;99.90;;;;;;5032130;28;20049;-65
2022/09/01 07:35:48;;;;;;;7.30;2.50;;;17.10;99.90;;;;;;5035645;28;20032;-67
2022/09/01 07:38:18;;;;;;;7.68;2.38;;;17.20;99.90;;;;;;5037663;28;20025;-65
2022/09/01 07:40:45;;;;;;;6.68;2.25;;;17.40;99.90;;;;;;5037747;28;20025;-65
2022/09/01 07:43:23;;;;;;;9.15;2.10;;;17.60;99.90;;;;;;5034788;28;20389;-65
2022/09/01 07:45:55;;;;;;;8.20;2.47;;;17.70;99.90;;;;;;5029483;28;20021;-62
2022/09/01 07:48:23;;;;;;;6.93;2.55;;;17.80;99.90;;;;;;5042713;28;20033;-63
2022/09/01 07:50:51;;;;;;;5.50;2.03;;;18.00;99.90;;;;;;5032387;28;20101;-64
2022/09/01 07:53:21;;;;;;;6.53;2.00;;;18.10;99.90;;;;;;5050393;28;20040;-63
2022/09/01 07:55:52;;;;;;;8.50;2.33;;;18.20;99.90;;;;;;5031888;28;20458;-63
2022/09/01 07:58:20;;;;;;;11.00;2.33;;;18.50;99.90;;;;;;5032937;28;20116;-63
2022/09/01 08:00:48;;;;;;;6.18;2.10;;;18.60;99.90;;;;;;5031666;28;20029;-64
2022/09/01 08:03:16;;;;;;;11.23;2.13;;;18.60;99.90;;;;;;5031188;28;20039;-63
2022/09/01 08:05:42;;;;;;;7.25;1.80;;;18.70;99.90;;;;;;5035267;28;20026;-63
2022/09/01 08:08:08;;;;;;;5.03;1.70;;;18.90;99.90;;;;;;5036337;28;20112;-63
2022/09/01 08:10:38;;;;;;;6.35;2.10;;;19.00;99.90;;;;;;5041758;28;20041;-63
2022/09/01 08:13:04;;;;;;;6.93;1.90;;;19.10;99.90;;;;;;5046503;28;20024;-63
2022/09/01 08:15:30;;;;;;;7.25;1.88;;;19.20;99.90;;;;;;5042041;28;20039;-64
2022/09/01 08:17:55;;;;;;;5.47;2.00;;;19.30;99.90;;;;;;5031834;28;20171;-63
2022/09/01 08:20:21;;;;;;;8.73;1.77;;;19.40;99.90;;;;;;5041341;28;20053;-64
2022/09/01 08:22:47;;;;;;;5.30;1.85;;;19.40;99.90;;;;;;5045828;28;20044;-63
2022/09/01 08:25:14;;;;;;;7.60;1.92;;;20.00;99.90;;;;;;5037572;28;20025;-63
2022/09/01 08:27:40;;;;;;;7.40;1.85;;;20.40;99.80;;;;;;5055844;28;20031;-63
2022/09/01 08:30:08;;;;;;;7.15;1.80;;;20.90;98.50;;;;;;5040566;28;20025;-63
2022/09/01 08:32:34;;;;;;;6.20;1.90;;;21.50;96.30;;;;;;5038790;28;20048;-64
2022/09/01 08:35:00;;;;;;;9.95;1.85;;;21.70;96.00;;;;;;5043061;28;20488;-63
2022/09/01 08:37:27;;;;;;;72.90;5.82;;;21.90;95.80;;;;;;5044222;28;20029;-64
2022/09/01 08:39:52;;;;;;;10.18;1.90;;;22.40;95.30;;;;;;5032912;28;20056;-65
2022/09/01 08:42:26;;;;;;;7.07;1.60;;;22.50;93.40;;;;;;5035955;28;20565;-64
2022/09/01 08:45:02;;;;;;;5.47;1.50;;;22.80;93.40;;;;;;5029807;28;20029;-64
2022/09/01 08:47:29;;;;;;;9.85;2.42;;;22.80;92.90;;;;;;5033863;28;20033;-65
2022/09/01 08:49:56;;;;;;;10.75;1.58;;;23.20;92.10;;;;;;5035699;28;20061;-65
2022/09/01 08:53:02;;;;;;;5.07;1.60;;;22.80;92.00;;;;;;5030703;28;20033;-64
2022/09/01 08:55:40;;;;;;;6.50;1.70;;;23.30;91.80;;;;;;5043783;28;20040;-64
2022/09/01 08:58:08;;;;;;;23.67;4.35;;;23.00;90.90;;;;;;5038624;28;20548;-63
2022/09/01 09:00:43;;;;;;;4.00;1.40;;;23.40;95.50;;;;;;5037045;28;20052;-66
2022/09/01 09:03:57;;;;;;;11.57;1.88;;;24.20;92.90;;;;;;5034079;28;20124;-63
2022/09/01 09:06:54;;;;;;;5.78;1.52;;;25.20;90.50;;;;;;5035471;28;20143;-63
2022/09/01 09:09:20;;;;;;;4.40;1.45;;;24.80;89.30;;;;;;5033164;28;20148;-63
2022/09/01 09:11:54;;;;;;;5.38;1.60;;;24.50;88.00;;;;;;5034636;28;20108;-63
2022/09/01 09:14:54;;;;;;;7.65;1.50;;;24.10;90.00;;;;;;5035685;28;20060;-67
2022/09/01 09:17:28;;;;;;;6.28;1.40;;;24.00;90.70;;;;;;5040527;28;20032;-67
2022/09/01 09:19:54;;;;;;;5.53;1.40;;;25.10;90.80;;;;;;5045442;28;20420;-66
2022/09/01 09:22:20;;;;;;;6.22;1.70;;;26.10;86.80;;;;;;5040046;28;20044;-66
2022/09/01 09:25:02;;;;;;;5.20;1.58;;;26.10;83.90;;;;;;5045480;28;20026;-66
2022/09/01 09:27:37;;;;;;;6.45;1.40;;;25.30;84.50;;;;;;5048085;28;20057;-66
2022/09/01 09:30:10;;;;;;;6.55;1.52;;;25.20;87.20;;;;;;5036706;28;20481;-66
2022/09/01 09:32:54;;;;;;;9.38;1.70;;;25.40;84.60;;;;;;5038125;28;20061;-66
2022/09/01 09:35:32;;;;;;;6.45;1.65;;;25.40;86.10;;;;;;5037039;28;20091;-66
2022/09/01 09:38:21;;;;;;;4.47;1.60;;;26.30;84.60;;;;;;5046916;28;20084;-65
2022/09/01 09:41:16;;;;;;;5.90;1.70;;;26.40;83.80;;;;;;5057369;28;20020;-65
2022/09/01 09:43:50;;;;;;;6.50;1.60;;;25.80;83.40;;;;;;5047816;28;20052;-66
2022/09/01 09:46:31;;;;;;;6.40;1.50;;;26.10;84.80;;;;;;5045386;28;20025;-65
2022/09/01 09:49:23;;;;;;;6.13;1.77;;;26.80;82.80;;;;;;5039209;28;20020;-65
2022/09/01 09:52:08;;;;;;;6.45;1.52;;;27.00;81.90;;;;;;5039319;28;20030;-65
2022/09/01 09:54:36;;;;;;;5.38;1.60;;;27.40;81.00;;;;;;5037495;28;20491;-65
2022/09/01 09:57:12;;;;;;;5.90;2.20;;;26.10;80.60;;;;;;5043381;28;20044;-65
2022/09/01 09:59:43;;;;;;;14.70;4.03;;;25.70;82.60;;;;;;5043720;28;20557;-65
2022/09/01 10:02:25;;;;;;;16.88;4.85;;;26.40;82.50;;;;;;5037404;28;20091;-66
2022/09/01 10:04:51;;;;;;;17.33;5.53;;;26.70;80.90;;;;;;5043390;28;20009;-66
2022/09/01 10:07:31;;;;;;;7.30;1.80;;;26.70;81.30;;;;;;5045825;28;20516;-65
2022/09/01 10:10:22;;;;;;;9.55;2.92;;;26.20;79.60;;;;;;5041334;28;20021;-65
2022/09/01 10:12:47;;;;;;;10.18;3.45;;;26.20;82.40;;;;;;5041429;28;20041;-65
2022/09/01 10:15:17;;;;;;;6.93;1.70;;;26.70;80.10;;;;;;5053335;28;20040;-65
2022/09/01 10:17:44;;;;;;;7.95;2.67;;;26.20;79.00;;;;;;5051043;28;20485;-65
2022/09/01 10:20:24;;;;;;;6.50;2.25;;;26.20;81.20;;;;;;5031621;28;20385;-65
2022/09/01 10:22:50;;;;;;;8.02;1.63;;;26.20;81.00;;;;;;5054539;28;20032;-65
2022/09/01 10:25:20;;;;;;;9.98;1.70;;;26.50;79.90;;;;;;5035802;28;20033;-65
2022/09/01 10:27:57;;;;;;;6.55;2.17;;;26.60;80.30;;;;;;5038144;28;20013;-65
2022/09/01 10:30:23;;;;;;;6.63;1.73;;;27.70;78.30;;;;;;5042715;28;20409;-66
2022/09/01 10:32:55;;;;;;;6.63;1.50;;;27.80;75.70;;;;;;5048204;28;20029;-65
2022/09/01 10:35:32;;;;;;;5.00;1.85;;;27.10;77.00;;;;;;5037627;28;20031;-66
2022/09/01 10:38:02;;;;;;;3.83;1.40;;;27.90;77.30;;;;;;5040987;28;20021;-66
2022/09/01 10:40:27;;;;;;;8.68;1.60;;;28.80;75.60;;;;;;5034819;28;20033;-65
2022/09/01 10:43:21;;;;;;;5.50;1.52;;;29.70;74.00;;;;;;5036031;28;20130;-65
2022/09/01 10:45:47;;;;;;;4.00;1.52;;;29.00;73.50;;;;;;5041427;28;20037;-65
2022/09/01 10:48:28;;;;;;;5.13;1.80;;;28.70;74.20;;;;;;5039730;28;20028;-65
2022/09/01 10:51:13;;;;;;;6.43;1.63;;;28.70;75.50;;;;;;5039732;28;20499;-65
2022/09/01 10:53:49;;;;;;;7.53;1.88;;;27.80;74.90;;;;;;5049793;28;20425;-65
2022/09/01 10:56:42;;;;;;;5.53;1.50;;;28.00;75.10;;;;;;5039276;28;20025;-66
2022/09/01 10:59:30;;;;;;;4.35;1.60;;;28.40;75.00;;;;;;5039087;28;20120;-65
2022/09/01 11:02:09;;;;;;;5.57;1.58;;;28.50;73.60;;;;;;5036317;28;20467;-65
2022/09/01 11:04:38;;;;;;;7.53;1.60;;;29.00;72.80;;;;;;5054099;28;20412;-65
2022/09/01 11:07:31;;;;;;;5.22;1.80;;;26.80;74.20;;;;;;5051861;28;20029;-65
2022/09/01 11:10:12;;;;;;;5.82;1.55;;;25.70;77.30;;;;;;5057414;28;20183;-65
2022/09/01 11:13:05;;;;;;;5.15;1.55;;;27.20;76.90;;;;;;5042157;28;20036;-65
2022/09/01 11:15:41;;;;;;;5.40;1.75;;;28.20;74.20;;;;;;5044788;28;20068;-65
2022/09/01 11:18:10;;;;;;;5.32;1.85;;;29.10;73.30;;;;;;5041932;28;20033;-66
2022/09/01 11:20:39;;;;;;;7.07;1.70;;;29.30;72.50;;;;;;5042313;28;20056;-65
2022/09/01 11:23:25;;;;;;;3.95;1.50;;;30.50;72.50;;;;;;5040140;28;20034;-65
2022/09/01 11:26:01;;;;;;;9.15;1.80;;;31.20;71.00;;;;;;5041682;28;20045;-66
2022/09/01 11:28:30;;;;;;;4.13;1.50;;;28.60;70.30;;;;;;5049067;28;20021;-65
2022/09/01 11:31:27;;;;;;;4.32;1.70;;;28.20;72.80;;;;;;5042017;28;20495;-65
2022/09/01 11:33:57;;;;;;;4.50;1.70;;;29.70;71.10;;;;;;5049187;28;20049;-66
2022/09/01 11:36:28;;;;;;;5.45;1.67;;;30.00;71.10;;;;;;5054880;28;20087;-66
2022/09/01 11:39:13;;;;;;;4.32;1.60;;;29.90;68.10;;;;;;5042059;28;20033;-65
2022/09/01 11:41:38;;;;;;;4.32;1.58;;;30.00;69.80;;;;;;5046531;28;20048;-66
2022/09/01 11:44:31;;;;;;;5.25;1.40;;;30.30;67.90;;;;;;5053474;28;20021;-66
2022/09/01 11:47:03;;;;;;;4.68;1.70;;;29.20;68.10;;;;;;5064450;28;20390;-66
2022/09/01 11:49:36;;;;;;;3.35;1.48;;;28.90;70.70;;;;;;5047297;28;20034;-65
2022/09/01 11:52:03;;;;;;;4.50;1.60;;;28.40;71.20;;;;;;5065716;28;20017;-65
2022/09/01 11:54:38;;;;;;;6.13;1.60;;;27.40;72.20;;;;;;5052182;28;20025;-65
2022/09/01 11:57:29;;;;;;;9.38;1.73;;;26.90;72.30;;;;;;5055613;28;20046;-65
2022/09/01 11:59:56;;;;;;;10.18;1.75;;;27.40;71.00;;;;;;5043179;28;20132;-65
2022/09/01 12:02:32;;;;;;;4.78;1.48;;;29.10;71.00;;;;;;5053816;28;20060;-66
2022/09/01 12:04:58;;;;;;;7.85;1.45;;;29.10;70.50;;;;;;5050448;28;20036;-66
2022/09/01 12:07:43;;;;;;;8.82;1.60;;;31.20;67.40;;;;;;5053809;28;20040;-65
2022/09/01 12:10:34;;;;;;;4.68;1.40;;;31.70;66.70;;;;;;5038646;28;20020;-65
2022/09/01 12:13:21;;;;;;;7.13;1.70;;;31.60;63.80;;;;;;5043103;28;20040;-65
2022/09/01 12:15:58;;;;;;;5.45;1.50;;;30.50;66.00;;;;;;5046538;28;20783;-65
2022/09/01 12:18:27;;;;;;;4.35;1.50;;;29.60;66.50;;;;;;5042544;28;20049;-66
2022/09/01 12:20:56;;;;;;;4.20;1.30;;;30.50;66.60;;;;;;5040878;28;20104;-66
2022/09/01 12:23:36;;;;;;;5.75;1.48;;;32.50;63.80;;;;;;5043958;28;20324;-66
2022/09/01 12:26:14;;;;;;;3.67;1.20;;;33.30;61.40;;;;;;5038180;28;20036;-66
2022/09/01 12:28:41;;;;;;;3.85;1.35;;;33.70;61.00;;;;;;5043720;28;20014;-66
2022/09/01 12:31:13;;;;;;;4.25;1.40;;;31.60;63.50;;;;;;5044984;28;20026;-66
2022/09/01 12:33:41;;;;;;;5.90;1.42;;;31.50;62.40;;;;;;5045616;28;20033;-66
2022/09/01 12:36:22;;;;;;;4.85;1.40;;;30.50;61.90;;;;;;5043656;28;20056;-66
2022/09/01 12:38:49;;;;;;;4.53;1.50;;;30.50;62.60;;;;;;5049127;28;20041;-66
2022/09/01 12:41:38;;;;;;;5.43;1.50;;;31.20;62.20;;;;;;5048730;28;20598;-65
2022/09/01 12:44:31;;;;;;;9.40;1.50;;;31.60;61.30;;;;;;5041646;28;20537;-65
2022/09/01 12:47:00;;;;;;;6.32;1.42;;;30.80;62.80;;;;;;5043549;28;20539;-66
2022/09/01 12:49:40;;;;;;;7.25;1.40;;;31.50;62.00;;;;;;5043384;28;20033;-66
2022/09/01 12:52:05;;;;;;;;;;;31.70;61.40;;;;;;5042709;28;20077;-66
2022/09/01 12:54:31;;;;;;;4.00;1.30;;;31.40;62.60;;;;;;5052822;28;19932;-66
2022/09/01 12:56:57;;;;;;;5.55;1.30;;;32.00;60.20;;;;;;5045540;28;20068;-64
2022/09/01 12:59:25;;;;;;;3.83;1.30;;;31.20;61.20;;;;;;5037620;28;20033;-64
2022/09/01 13:01:51;;;;;;;6.40;1.50;;;29.80;62.50;;;;;;5041527;28;20033;-64
2022/09/01 13:04:19;;;;;;;7.00;1.42;;;31.00;61.90;;;;;;5036175;28;20032;-64
2022/09/01 13:06:45;;;;;;;3.50;1.30;;;30.00;62.00;;;;;;5038788;28;20025;-64
2022/09/01 13:09:11;;;;;;;9.60;1.40;;;31.30;61.90;;;;;;5039171;28;20078;-64
2022/09/01 13:11:37;;;;;;;3.42;1.20;;;31.00;62.20;;;;;;5041492;28;20034;-65